sensor_id;sensor_type;location;lat;lon;timestamp;temperature;humidity
74376;HTU21D;62812;55.188;61.302;2023-06-04T00:00:08;25.12;49.18
74376;HTU21D;62812;55.188;61.302;2023-06-04T00:02:35;25.12;49.34
74376;HTU21D;62812;55.188;61.302;2023-06-04T00:05:03;25.18;49.44
74376;HTU21D;62812;55.188;61.302;2023-06-04T00:07:30;25.20;49.63
74376;HTU21D;62812;55.188;61.302;2023-06-04T00:10:15;25.34;48.77
74376;HTU21D;62812;55.188;61.302;2023-06-04T00:12:42;25.48;48.70
74376;HTU21D;62812;55.188;61.302;2023-06-04T00:15:10;25.77;47.90
74376;HTU21D;62812;55.188;61.302;2023-06-04T00:17:36;25.92;47.58
74376;HTU21D;62812;55.188;61.302;2023-06-04T00:20:03;25.96;47.68
74376;HTU21D;62812;55.188;61.302;2023-06-04T00:22:30;25.91;48.12
74376;HTU21D;62812;55.188;61.302;2023-06-04T00:24:57;25.99;47.48
74376;HTU21D;62812;55.188;61.302;2023-06-04T00:27:26;26.25;47.34
74376;HTU21D;62812;55.188;61.302;2023-06-04T00:29:52;26.49;47.18
74376;HTU21D;62812;55.188;61.302;2023-06-04T00:32:20;26.58;46.00
74376;HTU21D;62812;55.188;61.302;2023-06-04T00:34:50;26.62;47.41
74376;HTU21D;62812;55.188;61.302;2023-06-04T00:37:17;26.71;46.63
74376;HTU21D;62812;55.188;61.302;2023-06-04T00:39:44;26.93;45.90
74376;HTU21D;62812;55.188;61.302;2023-06-04T00:42:10;27.31;45.01
74376;HTU21D;62812;55.188;61.302;2023-06-04T00:44:39;27.63;45.02
74376;HTU21D;62812;55.188;61.302;2023-06-04T00:47:11;27.67;46.57
74376;HTU21D;62812;55.188;61.302;2023-06-04T00:49:39;27.70;45.41
74376;HTU21D;62812;55.188;61.302;2023-06-04T00:52:06;27.85;45.38
74376;HTU21D;62812;55.188;61.302;2023-06-04T00:54:34;28.05;43.88
74376;HTU21D;62812;55.188;61.302;2023-06-04T00:57:01;28.23;44.45
74376;HTU21D;62812;55.188;61.302;2023-06-04T00:59:28;28.44;44.09
74376;HTU21D;62812;55.188;61.302;2023-06-04T01:02:00;28.68;44.24
74376;HTU21D;62812;55.188;61.302;2023-06-04T01:04:33;28.72;43.53
74376;HTU21D;62812;55.188;61.302;2023-06-04T01:07:06;28.64;43.84
74376;HTU21D;62812;55.188;61.302;2023-06-04T01:09:36;28.68;43.92
74376;HTU21D;62812;55.188;61.302;2023-06-04T01:12:04;28.79;41.04
74376;HTU21D;62812;55.188;61.302;2023-06-04T01:14:31;29.12;40.52
74376;HTU21D;62812;55.188;61.302;2023-06-04T01:17:06;29.30;40.33
74376;HTU21D;62812;55.188;61.302;2023-06-04T01:20:02;29.48;39.97
74376;HTU21D;62812;55.188;61.302;2023-06-04T01:22:37;29.72;39.06
74376;HTU21D;62812;55.188;61.302;2023-06-04T01:25:09;29.94;38.77
74376;HTU21D;62812;55.188;61.302;2023-06-04T01:27:38;30.20;38.68
74376;HTU21D;62812;55.188;61.302;2023-06-04T01:30:13;30.42;38.17
74376;HTU21D;62812;55.188;61.302;2023-06-04T01:32:42;30.60;37.21
74376;HTU21D;62812;55.188;61.302;2023-06-04T01:35:09;30.69;37.23
74376;HTU21D;62812;55.188;61.302;2023-06-04T01:37:37;30.79;36.61
74376;HTU21D;62812;55.188;61.302;2023-06-04T01:40:05;30.90;36.76
74376;HTU21D;62812;55.188;61.302;2023-06-04T01:42:32;31.02;36.79
74376;HTU21D;62812;55.188;61.302;2023-06-04T01:44:58;30.96;37.79
74376;HTU21D;62812;55.188;61.302;2023-06-04T01:47:25;30.86;38.01
74376;HTU21D;62812;55.188;61.302;2023-06-04T01:49:54;31.14;37.28
74376;HTU21D;62812;55.188;61.302;2023-06-04T01:52:21;31.20;37.21
74376;HTU21D;62812;55.188;61.302;2023-06-04T01:54:48;31.05;37.45
74376;HTU21D;62812;55.188;61.302;2023-06-04T01:57:19;31.12;36.92
74376;HTU21D;62812;55.188;61.302;2023-06-04T01:59:46;31.66;36.08
74376;HTU21D;62812;55.188;61.302;2023-06-04T02:02:13;31.86;35.22
74376;HTU21D;62812;55.188;61.302;2023-06-04T02:04:40;32.42;34.53
74376;HTU21D;62812;55.188;61.302;2023-06-04T02:07:10;32.58;34.99
74376;HTU21D;62812;55.188;61.302;2023-06-04T02:09:36;32.77;33.89
74376;HTU21D;62812;55.188;61.302;2023-06-04T02:12:03;33.15;32.48
74376;HTU21D;62812;55.188;61.302;2023-06-04T02:14:31;33.52;31.75
74376;HTU21D;62812;55.188;61.302;2023-06-04T02:16:57;33.66;31.49
74376;HTU21D;62812;55.188;61.302;2023-06-04T02:19:25;33.56;31.61
74376;HTU21D;62812;55.188;61.302;2023-06-04T02:21:54;33.13;32.51
74376;HTU21D;62812;55.188;61.302;2023-06-04T02:24:23;32.84;32.85
74376;HTU21D;62812;55.188;61.302;2023-06-04T02:26:50;32.74;33.31
74376;HTU21D;62812;55.188;61.302;2023-06-04T02:29:17;32.72;34.18
74376;HTU21D;62812;55.188;61.302;2023-06-04T02:31:44;33.00;32.70
74376;HTU21D;62812;55.188;61.302;2023-06-04T02:34:11;33.22;32.09
74376;HTU21D;62812;55.188;61.302;2023-06-04T02:36:40;33.28;31.93
74376;HTU21D;62812;55.188;61.302;2023-06-04T02:39:07;33.30;32.15
74376;HTU21D;62812;55.188;61.302;2023-06-04T02:41:35;33.25;32.36
74376;HTU21D;62812;55.188;61.302;2023-06-04T02:44:02;33.36;32.73
74376;HTU21D;62812;55.188;61.302;2023-06-04T02:46:30;33.52;31.79
74376;HTU21D;62812;55.188;61.302;2023-06-04T02:48:58;33.78;31.71
74376;HTU21D;62812;55.188;61.302;2023-06-04T02:51:27;33.71;31.73
74376;HTU21D;62812;55.188;61.302;2023-06-04T02:53:55;33.36;32.93
74376;HTU21D;62812;55.188;61.302;2023-06-04T02:56:22;33.12;33.66
74376;HTU21D;62812;55.188;61.302;2023-06-04T02:58:53;32.78;34.04
74376;HTU21D;62812;55.188;61.302;2023-06-04T03:01:22;32.54;33.76
74376;HTU21D;62812;55.188;61.302;2023-06-04T03:03:51;32.27;33.99
74376;HTU21D;62812;55.188;61.302;2023-06-04T03:06:19;32.12;34.61
74376;HTU21D;62812;55.188;61.302;2023-06-04T03:08:49;32.09;35.37
74376;HTU21D;62812;55.188;61.302;2023-06-04T03:11:16;32.17;35.10
74376;HTU21D;62812;55.188;61.302;2023-06-04T03:13:43;32.33;34.92
74376;HTU21D;62812;55.188;61.302;2023-06-04T03:16:12;32.53;34.41
74376;HTU21D;62812;55.188;61.302;2023-06-04T03:18:40;32.79;33.81
74376;HTU21D;62812;55.188;61.302;2023-06-04T03:21:09;32.96;33.16
74376;HTU21D;62812;55.188;61.302;2023-06-04T03:23:42;33.07;32.79
74376;HTU21D;62812;55.188;61.302;2023-06-04T03:26:12;33.22;32.56
74376;HTU21D;62812;55.188;61.302;2023-06-04T03:28:41;33.16;32.38
74376;HTU21D;62812;55.188;61.302;2023-06-04T03:31:13;33.12;32.62
74376;HTU21D;62812;55.188;61.302;2023-06-04T03:33:40;32.90;32.82
74376;HTU21D;62812;55.188;61.302;2023-06-04T03:36:07;32.96;32.51
74376;HTU21D;62812;55.188;61.302;2023-06-04T03:38:34;33.01;32.10
74376;HTU21D;62812;55.188;61.302;2023-06-04T03:41:01;33.03;32.50
74376;HTU21D;62812;55.188;61.302;2023-06-04T03:43:28;33.11;32.00
74376;HTU21D;62812;55.188;61.302;2023-06-04T03:45:55;33.07;31.92
74376;HTU21D;62812;55.188;61.302;2023-06-04T03:48:23;33.16;31.80
74376;HTU21D;62812;55.188;61.302;2023-06-04T03:50:50;33.27;31.35
74376;HTU21D;62812;55.188;61.302;2023-06-04T03:53:26;33.29;31.14
74376;HTU21D;62812;55.188;61.302;2023-06-04T03:56:12;33.26;31.83
74376;HTU21D;62812;55.188;61.302;2023-06-04T03:58:39;32.85;32.22
74376;HTU21D;62812;55.188;61.302;2023-06-04T04:01:06;32.81;31.58
74376;HTU21D;62812;55.188;61.302;2023-06-04T04:03:38;32.85;32.20
74376;HTU21D;62812;55.188;61.302;2023-06-04T04:06:05;32.49;32.29
74376;HTU21D;62812;55.188;61.302;2023-06-04T04:08:32;32.59;32.57
74376;HTU21D;62812;55.188;61.302;2023-06-04T04:11:01;32.63;32.74
74376;HTU21D;62812;55.188;61.302;2023-06-04T04:13:28;32.74;31.89
74376;HTU21D;62812;55.188;61.302;2023-06-04T04:15:55;32.83;31.89
74376;HTU21D;62812;55.188;61.302;2023-06-04T04:18:23;32.91;32.29
74376;HTU21D;62812;55.188;61.302;2023-06-04T04:20:51;32.94;32.06
74376;HTU21D;62812;55.188;61.302;2023-06-04T04:23:18;33.08;33.67
74376;HTU21D;62812;55.188;61.302;2023-06-04T04:25:44;33.13;31.64
74376;HTU21D;62812;55.188;61.302;2023-06-04T04:28:11;33.25;30.67
74376;HTU21D;62812;55.188;61.302;2023-06-04T04:30:41;33.41;30.35
74376;HTU21D;62812;55.188;61.302;2023-06-04T04:33:11;33.41;30.10
74376;HTU21D;62812;55.188;61.302;2023-06-04T04:35:42;33.38;30.21
74376;HTU21D;62812;55.188;61.302;2023-06-04T04:38:12;33.76;29.49
74376;HTU21D;62812;55.188;61.302;2023-06-04T04:40:39;33.66;29.87
74376;HTU21D;62812;55.188;61.302;2023-06-04T04:43:06;33.56;29.99
74376;HTU21D;62812;55.188;61.302;2023-06-04T04:45:32;33.70;30.69
74376;HTU21D;62812;55.188;61.302;2023-06-04T04:48:00;33.61;30.34
74376;HTU21D;62812;55.188;61.302;2023-06-04T04:50:26;33.51;30.25
74376;HTU21D;62812;55.188;61.302;2023-06-04T04:52:53;33.49;30.71
74376;HTU21D;62812;55.188;61.302;2023-06-04T04:55:22;33.56;31.39
74376;HTU21D;62812;55.188;61.302;2023-06-04T04:57:51;33.58;30.80
74376;HTU21D;62812;55.188;61.302;2023-06-04T05:00:18;33.62;30.56
74376;HTU21D;62812;55.188;61.302;2023-06-04T05:02:45;33.67;31.06
74376;HTU21D;62812;55.188;61.302;2023-06-04T05:05:13;33.65;30.30
74376;HTU21D;62812;55.188;61.302;2023-06-04T05:07:39;33.64;30.90
74376;HTU21D;62812;55.188;61.302;2023-06-04T05:10:07;33.75;31.26
74376;HTU21D;62812;55.188;61.302;2023-06-04T05:12:36;33.75;31.19
74376;HTU21D;62812;55.188;61.302;2023-06-04T05:15:03;33.55;31.46
74376;HTU21D;62812;55.188;61.302;2023-06-04T05:17:39;33.71;31.73
74376;HTU21D;62812;55.188;61.302;2023-06-04T05:20:07;33.88;31.40
74376;HTU21D;62812;55.188;61.302;2023-06-04T05:22:38;34.01;30.66
74376;HTU21D;62812;55.188;61.302;2023-06-04T05:25:06;34.16;30.47
74376;HTU21D;62812;55.188;61.302;2023-06-04T05:27:33;34.14;30.02
74376;HTU21D;62812;55.188;61.302;2023-06-04T05:30:01;34.09;30.09
74376;HTU21D;62812;55.188;61.302;2023-06-04T05:32:34;34.05;30.54
74376;HTU21D;62812;55.188;61.302;2023-06-04T05:35:03;34.10;30.06
74376;HTU21D;62812;55.188;61.302;2023-06-04T05:37:31;33.93;30.02
74376;HTU21D;62812;55.188;61.302;2023-06-04T05:40:02;34.01;30.20
74376;HTU21D;62812;55.188;61.302;2023-06-04T05:42:30;34.05;29.93
74376;HTU21D;62812;55.188;61.302;2023-06-04T05:44:57;34.09;29.29
74376;HTU21D;62812;55.188;61.302;2023-06-04T05:47:27;34.19;29.66
74376;HTU21D;62812;55.188;61.302;2023-06-04T05:49:57;34.23;29.44
74376;HTU21D;62812;55.188;61.302;2023-06-04T05:52:25;34.09;29.32
74376;HTU21D;62812;55.188;61.302;2023-06-04T05:54:52;34.00;30.20
74376;HTU21D;62812;55.188;61.302;2023-06-04T05:57:20;33.97;30.44
74376;HTU21D;62812;55.188;61.302;2023-06-04T05:59:51;34.12;30.17
74376;HTU21D;62812;55.188;61.302;2023-06-04T06:02:23;34.19;28.99
74376;HTU21D;62812;55.188;61.302;2023-06-04T06:04:54;34.15;29.55
74376;HTU21D;62812;55.188;61.302;2023-06-04T06:07:21;33.90;30.03
74376;HTU21D;62812;55.188;61.302;2023-06-04T06:09:51;33.81;30.21
74376;HTU21D;62812;55.188;61.302;2023-06-04T06:12:21;33.95;29.39
74376;HTU21D;62812;55.188;61.302;2023-06-04T06:14:50;34.09;29.89
74376;HTU21D;62812;55.188;61.302;2023-06-04T06:17:17;34.20;30.16
74376;HTU21D;62812;55.188;61.302;2023-06-04T06:19:44;34.53;28.61
74376;HTU21D;62812;55.188;61.302;2023-06-04T06:22:13;34.49;28.74
74376;HTU21D;62812;55.188;61.302;2023-06-04T06:24:40;34.32;29.03
74376;HTU21D;62812;55.188;61.302;2023-06-04T06:27:07;34.18;29.21
74376;HTU21D;62812;55.188;61.302;2023-06-04T06:29:34;33.99;29.74
74376;HTU21D;62812;55.188;61.302;2023-06-04T06:32:00;33.87;29.73
74376;HTU21D;62812;55.188;61.302;2023-06-04T06:34:29;33.68;30.26
74376;HTU21D;62812;55.188;61.302;2023-06-04T06:36:58;33.68;30.09
74376;HTU21D;62812;55.188;61.302;2023-06-04T06:39:26;33.78;29.84
74376;HTU21D;62812;55.188;61.302;2023-06-04T06:41:56;33.72;30.14
74376;HTU21D;62812;55.188;61.302;2023-06-04T06:44:25;33.68;30.64
74376;HTU21D;62812;55.188;61.302;2023-06-04T06:46:52;33.60;31.08
74376;HTU21D;62812;55.188;61.302;2023-06-04T06:49:22;33.44;31.59
74376;HTU21D;62812;55.188;61.302;2023-06-04T06:51:49;33.31;31.83
74376;HTU21D;62812;55.188;61.302;2023-06-04T06:54:16;33.20;32.30
74376;HTU21D;62812;55.188;61.302;2023-06-04T06:56:51;33.03;32.80
74376;HTU21D;62812;55.188;61.302;2023-06-04T06:59:18;33.12;31.70
74376;HTU21D;62812;55.188;61.302;2023-06-04T07:01:47;33.15;31.61
74376;HTU21D;62812;55.188;61.302;2023-06-04T07:04:14;33.25;31.43
74376;HTU21D;62812;55.188;61.302;2023-06-04T07:06:41;33.37;31.74
74376;HTU21D;62812;55.188;61.302;2023-06-04T07:09:08;33.27;31.48
74376;HTU21D;62812;55.188;61.302;2023-06-04T07:11:36;33.28;31.52
74376;HTU21D;62812;55.188;61.302;2023-06-04T07:14:04;33.38;31.62
74376;HTU21D;62812;55.188;61.302;2023-06-04T07:16:33;33.43;31.73
74376;HTU21D;62812;55.188;61.302;2023-06-04T07:19:01;33.51;30.32
74376;HTU21D;62812;55.188;61.302;2023-06-04T07:21:28;33.60;29.87
74376;HTU21D;62812;55.188;61.302;2023-06-04T07:23:55;33.78;28.93
74376;HTU21D;62812;55.188;61.302;2023-06-04T07:26:23;33.99;27.82
74376;HTU21D;62812;55.188;61.302;2023-06-04T07:28:52;34.14;29.16
74376;HTU21D;62812;55.188;61.302;2023-06-04T07:31:20;34.17;26.49
74376;HTU21D;62812;55.188;61.302;2023-06-04T07:33:47;34.06;28.48
74376;HTU21D;62812;55.188;61.302;2023-06-04T07:36:14;34.12;28.44
74376;HTU21D;62812;55.188;61.302;2023-06-04T07:38:42;34.11;28.18
74376;HTU21D;62812;55.188;61.302;2023-06-04T07:41:09;34.07;28.60
74376;HTU21D;62812;55.188;61.302;2023-06-04T07:43:39;34.09;28.73
74376;HTU21D;62812;55.188;61.302;2023-06-04T07:46:06;34.15;28.39
74376;HTU21D;62812;55.188;61.302;2023-06-04T07:48:35;34.08;28.49
74376;HTU21D;62812;55.188;61.302;2023-06-04T07:51:06;34.07;28.69
74376;HTU21D;62812;55.188;61.302;2023-06-04T07:53:33;34.09;28.28
74376;HTU21D;62812;55.188;61.302;2023-06-04T07:56:00;34.03;26.64
74376;HTU21D;62812;55.188;61.302;2023-06-04T07:58:28;34.00;27.16
74376;HTU21D;62812;55.188;61.302;2023-06-04T08:00:57;33.97;27.25
74376;HTU21D;62812;55.188;61.302;2023-06-04T08:03:23;33.85;26.71
74376;HTU21D;62812;55.188;61.302;2023-06-04T08:05:55;33.71;25.74
74376;HTU21D;62812;55.188;61.302;2023-06-04T08:08:24;33.73;25.90
74376;HTU21D;62812;55.188;61.302;2023-06-04T08:10:52;33.82;27.00
74376;HTU21D;62812;55.188;61.302;2023-06-04T08:13:19;33.97;26.94
74376;HTU21D;62812;55.188;61.302;2023-06-04T08:15:49;34.04;27.56
74376;HTU21D;62812;55.188;61.302;2023-06-04T08:18:38;34.23;26.09
74376;HTU21D;62812;55.188;61.302;2023-06-04T08:21:25;34.22;25.61
74376;HTU21D;62812;55.188;61.302;2023-06-04T08:24:03;34.12;23.71
74376;HTU21D;62812;55.188;61.302;2023-06-04T08:27:04;34.06;23.43
74376;HTU21D;62812;55.188;61.302;2023-06-04T08:29:57;34.05;21.73
74376;HTU21D;62812;55.188;61.302;2023-06-04T08:32:52;33.96;22.11
74376;HTU21D;62812;55.188;61.302;2023-06-04T08:35:35;33.86;22.12
74376;HTU21D;62812;55.188;61.302;2023-06-04T08:38:08;33.91;22.91
74376;HTU21D;62812;55.188;61.302;2023-06-04T08:40:53;34.05;22.85
74376;HTU21D;62812;55.188;61.302;2023-06-04T08:43:27;34.03;23.71
74376;HTU21D;62812;55.188;61.302;2023-06-04T08:45:59;34.01;25.51
74376;HTU21D;62812;55.188;61.302;2023-06-04T08:48:28;34.22;23.61
74376;HTU21D;62812;55.188;61.302;2023-06-04T08:51:05;34.30;23.69
74376;HTU21D;62812;55.188;61.302;2023-06-04T08:53:41;34.35;23.95
74376;HTU21D;62812;55.188;61.302;2023-06-04T08:56:17;34.50;22.76
74376;HTU21D;62812;55.188;61.302;2023-06-04T08:58:49;34.57;22.24
74376;HTU21D;62812;55.188;61.302;2023-06-04T09:01:18;34.56;23.06
74376;HTU21D;62812;55.188;61.302;2023-06-04T09:03:46;34.59;23.94
74376;HTU21D;62812;55.188;61.302;2023-06-04T09:06:15;34.64;24.12
74376;HTU21D;62812;55.188;61.302;2023-06-04T09:09:11;34.76;22.12
74376;HTU21D;62812;55.188;61.302;2023-06-04T09:11:49;34.80;22.49
74376;HTU21D;62812;55.188;61.302;2023-06-04T09:14:16;34.86;22.29
74376;HTU21D;62812;55.188;61.302;2023-06-04T09:16:45;34.90;22.66
74376;HTU21D;62812;55.188;61.302;2023-06-04T09:19:30;34.92;22.65
74376;HTU21D;62812;55.188;61.302;2023-06-04T09:22:02;34.91;20.75
74376;HTU21D;62812;55.188;61.302;2023-06-04T09:24:40;34.91;20.59
74376;HTU21D;62812;55.188;61.302;2023-06-04T09:27:11;34.92;21.47
74376;HTU21D;62812;55.188;61.302;2023-06-04T09:29:48;34.89;21.35
74376;HTU21D;62812;55.188;61.302;2023-06-04T09:32:21;34.92;21.74
74376;HTU21D;62812;55.188;61.302;2023-06-04T09:34:47;35.00;22.39
74376;HTU21D;62812;55.188;61.302;2023-06-04T09:37:14;35.09;21.57
74376;HTU21D;62812;55.188;61.302;2023-06-04T09:39:52;35.14;20.42
74376;HTU21D;62812;55.188;61.302;2023-06-04T09:42:19;35.12;20.42
74376;HTU21D;62812;55.188;61.302;2023-06-04T09:44:47;35.12;23.14
74376;HTU21D;62812;55.188;61.302;2023-06-04T09:47:14;35.11;22.09
74376;HTU21D;62812;55.188;61.302;2023-06-04T09:49:41;35.11;23.34
74376;HTU21D;62812;55.188;61.302;2023-06-04T09:52:08;35.26;23.12
74376;HTU21D;62812;55.188;61.302;2023-06-04T09:54:36;35.38;21.93
74376;HTU21D;62812;55.188;61.302;2023-06-04T09:57:13;35.47;20.50
74376;HTU21D;62812;55.188;61.302;2023-06-04T09:59:45;35.45;20.76
74376;HTU21D;62812;55.188;61.302;2023-06-04T10:02:13;35.48;21.13
74376;HTU21D;62812;55.188;61.302;2023-06-04T10:04:41;35.52;20.47
74376;HTU21D;62812;55.188;61.302;2023-06-04T10:07:13;35.44;21.05
74376;HTU21D;62812;55.188;61.302;2023-06-04T10:09:43;35.35;21.00
74376;HTU21D;62812;55.188;61.302;2023-06-04T10:12:25;35.38;23.80
74376;HTU21D;62812;55.188;61.302;2023-06-04T10:15:02;35.23;21.79
74376;HTU21D;62812;55.188;61.302;2023-06-04T10:17:41;35.18;21.44
74376;HTU21D;62812;55.188;61.302;2023-06-04T10:20:10;35.06;21.57
74376;HTU21D;62812;55.188;61.302;2023-06-04T10:22:41;34.89;21.98
74376;HTU21D;62812;55.188;61.302;2023-06-04T10:25:09;34.76;22.24
74376;HTU21D;62812;55.188;61.302;2023-06-04T10:27:38;34.53;23.94
74376;HTU21D;62812;55.188;61.302;2023-06-04T10:30:07;34.33;22.73
74376;HTU21D;62812;55.188;61.302;2023-06-04T10:32:34;34.18;23.10
74376;HTU21D;62812;55.188;61.302;2023-06-04T10:35:04;33.68;19.55
74376;HTU21D;62812;55.188;61.302;2023-06-04T10:37:34;33.37;22.08
74376;HTU21D;62812;55.188;61.302;2023-06-04T10:40:01;32.81;24.05
74376;HTU21D;62812;55.188;61.302;2023-06-04T10:42:40;31.82;29.33
74376;HTU21D;62812;55.188;61.302;2023-06-04T10:45:09;30.35;35.12
74376;HTU21D;62812;55.188;61.302;2023-06-04T10:47:41;29.18;42.80
74376;HTU21D;62812;55.188;61.302;2023-06-04T10:50:16;28.89;42.22
74376;HTU21D;62812;55.188;61.302;2023-06-04T10:52:55;28.65;34.99
74376;HTU21D;62812;55.188;61.302;2023-06-04T10:55:31;28.40;42.09
74376;HTU21D;62812;55.188;61.302;2023-06-04T10:58:03;27.96;40.65
74376;HTU21D;62812;55.188;61.302;2023-06-04T11:00:36;27.78;43.30
74376;HTU21D;62812;55.188;61.302;2023-06-04T11:03:10;27.67;40.30
74376;HTU21D;62812;55.188;61.302;2023-06-04T11:05:44;27.69;41.31
74376;HTU21D;62812;55.188;61.302;2023-06-04T11:08:13;27.38;47.10
74376;HTU21D;62812;55.188;61.302;2023-06-04T11:10:42;27.13;49.96
74376;HTU21D;62812;55.188;61.302;2023-06-04T11:13:12;27.04;49.11
74376;HTU21D;62812;55.188;61.302;2023-06-04T11:15:42;26.98;48.85
74376;HTU21D;62812;55.188;61.302;2023-06-04T11:18:13;26.99;50.69
74376;HTU21D;62812;55.188;61.302;2023-06-04T11:20:47;26.72;51.53
74376;HTU21D;62812;55.188;61.302;2023-06-04T11:23:14;26.63;49.21
74376;HTU21D;62812;55.188;61.302;2023-06-04T11:25:42;26.62;46.88
74376;HTU21D;62812;55.188;61.302;2023-06-04T11:28:16;26.70;46.14
74376;HTU21D;62812;55.188;61.302;2023-06-04T11:30:44;26.87;47.54
74376;HTU21D;62812;55.188;61.302;2023-06-04T11:33:21;27.02;49.76
74376;HTU21D;62812;55.188;61.302;2023-06-04T11:35:48;27.19;46.96
74376;HTU21D;62812;55.188;61.302;2023-06-04T11:38:16;27.32;46.52
74376;HTU21D;62812;55.188;61.302;2023-06-04T11:40:56;27.40;46.72
74376;HTU21D;62812;55.188;61.302;2023-06-04T11:43:26;27.55;45.48
74376;HTU21D;62812;55.188;61.302;2023-06-04T11:45:53;27.67;46.22
74376;HTU21D;62812;55.188;61.302;2023-06-04T11:48:21;27.78;46.25
74376;HTU21D;62812;55.188;61.302;2023-06-04T11:50:50;27.83;47.04
74376;HTU21D;62812;55.188;61.302;2023-06-04T11:53:17;27.71;48.17
74376;HTU21D;62812;55.188;61.302;2023-06-04T11:55:46;27.67;44.64
74376;HTU21D;62812;55.188;61.302;2023-06-04T11:58:16;27.78;45.52
74376;HTU21D;62812;55.188;61.302;2023-06-04T12:00:46;27.79;46.21
74376;HTU21D;62812;55.188;61.302;2023-06-04T12:03:15;27.78;45.55
74376;HTU21D;62812;55.188;61.302;2023-06-04T12:05:45;27.75;45.82
74376;HTU21D;62812;55.188;61.302;2023-06-04T12:08:13;27.72;46.12
74376;HTU21D;62812;55.188;61.302;2023-06-04T12:10:44;27.60;46.75
74376;HTU21D;62812;55.188;61.302;2023-06-04T12:13:11;27.54;45.43
74376;HTU21D;62812;55.188;61.302;2023-06-04T12:15:39;27.63;45.06
74376;HTU21D;62812;55.188;61.302;2023-06-04T12:18:09;27.60;44.85
74376;HTU21D;62812;55.188;61.302;2023-06-04T12:20:38;27.70;43.15
74376;HTU21D;62812;55.188;61.302;2023-06-04T12:23:06;27.70;43.32
74376;HTU21D;62812;55.188;61.302;2023-06-04T12:25:34;27.65;44.27
74376;HTU21D;62812;55.188;61.302;2023-06-04T12:28:03;27.55;44.38
74376;HTU21D;62812;55.188;61.302;2023-06-04T12:30:37;27.51;45.02
74376;HTU21D;62812;55.188;61.302;2023-06-04T12:33:24;27.52;44.85
74376;HTU21D;62812;55.188;61.302;2023-06-04T12:36:09;27.60;44.79
74376;HTU21D;62812;55.188;61.302;2023-06-04T12:38:40;27.83;45.04
74376;HTU21D;62812;55.188;61.302;2023-06-04T12:41:09;28.00;44.01
74376;HTU21D;62812;55.188;61.302;2023-06-04T12:43:38;28.15;43.12
74376;HTU21D;62812;55.188;61.302;2023-06-04T12:46:06;28.27;42.88
74376;HTU21D;62812;55.188;61.302;2023-06-04T12:48:48;28.40;42.19
74376;HTU21D;62812;55.188;61.302;2023-06-04T12:51:25;28.44;41.71
74376;HTU21D;62812;55.188;61.302;2023-06-04T12:53:54;28.23;39.45
74376;HTU21D;62812;55.188;61.302;2023-06-04T12:56:23;28.30;41.97
74376;HTU21D;62812;55.188;61.302;2023-06-04T12:58:51;28.33;41.26
74376;HTU21D;62812;55.188;61.302;2023-06-04T13:01:19;28.21;41.26
74376;HTU21D;62812;55.188;61.302;2023-06-04T13:03:47;28.18;42.87
74376;HTU21D;62812;55.188;61.302;2023-06-04T13:06:15;28.11;42.90
74376;HTU21D;62812;55.188;61.302;2023-06-04T13:08:42;28.13;42.58
74376;HTU21D;62812;55.188;61.302;2023-06-04T13:11:09;28.21;42.45
74376;HTU21D;62812;55.188;61.302;2023-06-04T13:13:37;28.18;42.66
74376;HTU21D;62812;55.188;61.302;2023-06-04T13:16:04;28.12;42.03
74376;HTU21D;62812;55.188;61.302;2023-06-04T13:18:32;28.16;42.52
74376;HTU21D;62812;55.188;61.302;2023-06-04T13:21:00;28.34;42.13
74376;HTU21D;62812;55.188;61.302;2023-06-04T13:23:27;28.38;41.63
74376;HTU21D;62812;55.188;61.302;2023-06-04T13:25:54;28.33;41.47
74376;HTU21D;62812;55.188;61.302;2023-06-04T13:28:22;28.20;44.04
74376;HTU21D;62812;55.188;61.302;2023-06-04T13:30:49;28.10;43.80
74376;HTU21D;62812;55.188;61.302;2023-06-04T13:33:19;28.08;42.90
74376;HTU21D;62812;55.188;61.302;2023-06-04T13:35:48;28.09;42.71
74376;HTU21D;62812;55.188;61.302;2023-06-04T13:38:19;28.20;42.26
74376;HTU21D;62812;55.188;61.302;2023-06-04T13:43:22;27.97;43.39
74376;HTU21D;62812;55.188;61.302;2023-06-04T13:45:51;27.89;44.11
74376;HTU21D;62812;55.188;61.302;2023-06-04T13:48:19;27.83;44.72
74376;HTU21D;62812;55.188;61.302;2023-06-04T13:50:46;27.79;43.04
74376;HTU21D;62812;55.188;61.302;2023-06-04T13:53:13;27.72;44.24
74376;HTU21D;62812;55.188;61.302;2023-06-04T13:55:42;27.85;43.23
74376;HTU21D;62812;55.188;61.302;2023-06-04T13:58:09;28.10;41.80
74376;HTU21D;62812;55.188;61.302;2023-06-04T14:00:39;28.28;41.55
74376;HTU21D;62812;55.188;61.302;2023-06-04T14:03:07;28.35;39.43
74376;HTU21D;62812;55.188;61.302;2023-06-04T14:05:36;28.30;40.20
74376;HTU21D;62812;55.188;61.302;2023-06-04T14:08:32;28.20;40.75
74376;HTU21D;62812;55.188;61.302;2023-06-04T14:11:11;28.18;41.63
74376;HTU21D;62812;55.188;61.302;2023-06-04T14:13:46;28.09;42.07
74376;HTU21D;62812;55.188;61.302;2023-06-04T14:16:14;28.10;42.26
74376;HTU21D;62812;55.188;61.302;2023-06-04T14:18:44;28.15;41.24
74376;HTU21D;62812;55.188;61.302;2023-06-04T14:21:14;28.19;40.53
74376;HTU21D;62812;55.188;61.302;2023-06-04T14:23:58;28.17;40.79
74376;HTU21D;62812;55.188;61.302;2023-06-04T14:26:28;28.19;40.84
74376;HTU21D;62812;55.188;61.302;2023-06-04T14:28:57;28.24;41.08
74376;HTU21D;62812;55.188;61.302;2023-06-04T14:31:24;28.37;40.79
74376;HTU21D;62812;55.188;61.302;2023-06-04T14:33:51;28.30;41.22
74376;HTU21D;62812;55.188;61.302;2023-06-04T14:36:19;28.31;41.17
74376;HTU21D;62812;55.188;61.302;2023-06-04T14:38:47;28.27;41.23
74376;HTU21D;62812;55.188;61.302;2023-06-04T14:41:16;28.26;42.16
74376;HTU21D;62812;55.188;61.302;2023-06-04T14:43:49;28.20;41.80
74376;HTU21D;62812;55.188;61.302;2023-06-04T14:46:22;28.29;41.31
74376;HTU21D;62812;55.188;61.302;2023-06-04T14:48:49;28.24;40.88
74376;HTU21D;62812;55.188;61.302;2023-06-04T14:51:18;28.21;41.20
74376;HTU21D;62812;55.188;61.302;2023-06-04T14:53:46;28.23;41.26
74376;HTU21D;62812;55.188;61.302;2023-06-04T14:56:14;28.24;41.23
74376;HTU21D;62812;55.188;61.302;2023-06-04T14:58:45;28.21;41.28
74376;HTU21D;62812;55.188;61.302;2023-06-04T15:01:17;28.16;41.45
74376;HTU21D;62812;55.188;61.302;2023-06-04T15:03:50;28.02;43.15
74376;HTU21D;62812;55.188;61.302;2023-06-04T15:06:19;27.87;43.75
74376;HTU21D;62812;55.188;61.302;2023-06-04T15:08:50;27.87;43.03
74376;HTU21D;62812;55.188;61.302;2023-06-04T15:11:19;27.87;44.16
74376;HTU21D;62812;55.188;61.302;2023-06-04T15:14:05;27.84;44.06
74376;HTU21D;62812;55.188;61.302;2023-06-04T15:16:32;27.68;44.77
74376;HTU21D;62812;55.188;61.302;2023-06-04T15:19:05;27.63;45.35
74376;HTU21D;62812;55.188;61.302;2023-06-04T15:21:47;27.55;46.69